Map

Track Data

SID SEASON NUMBER BASIN SUBBASIN NAME ISO_TIME NATURE LAT LON WMO_WIND WMO_PRES WMO_AGENCY TRACK_TYPE DIST2LAND LANDFALL IFLAG USA_AGENCY USA_ATCF_ID USA_LAT USA_LON USA_RECORD USA_STATUS USA_WIND USA_PRES USA_SSHS USA_R34_NE USA_R34_SE USA_R34_SW USA_R34_NW USA_R50_NE USA_R50_SE USA_R50_SW USA_R50_NW USA_R64_NE USA_R64_SE USA_R64_SW USA_R64_NW USA_POCI USA_ROCI USA_RMW USA_EYE TOKYO_LAT TOKYO_LON TOKYO_GRADE TOKYO_WIND TOKYO_PRES TOKYO_R50_DIR TOKYO_R50_LONG TOKYO_R50_SHORT TOKYO_R30_DIR TOKYO_R30_LONG TOKYO_R30_SHORT TOKYO_LAND CMA_LAT CMA_LON CMA_CAT CMA_WIND CMA_PRES HKO_LAT HKO_LON HKO_CAT HKO_WIND HKO_PRES NEWDELHI_LAT NEWDELHI_LON NEWDELHI_GRADE NEWDELHI_WIND NEWDELHI_PRES NEWDELHI_CI NEWDELHI_DP NEWDELHI_POCI REUNION_LAT REUNION_LON REUNION_TYPE REUNION_WIND REUNION_PRES REUNION_TNUM REUNION_CI REUNION_RMW REUNION_R34_NE REUNION_R34_SE REUNION_R34_SW REUNION_R34_NW REUNION_R50_NE REUNION_R50_SE REUNION_R50_SW REUNION_R50_NW REUNION_R64_NE REUNION_R64_SE REUNION_R64_SW REUNION_R64_NW BOM_LAT BOM_LON BOM_TYPE BOM_WIND BOM_PRES BOM_TNUM BOM_CI BOM_RMW BOM_R34_NE BOM_R34_SE BOM_R34_SW BOM_R34_NW BOM_R50_NE BOM_R50_SE BOM_R50_SW BOM_R50_NW BOM_R64_NE BOM_R64_SE BOM_R64_SW BOM_R64_NW BOM_ROCI BOM_POCI BOM_EYE BOM_POS_METHOD BOM_PRES_METHOD NADI_LAT NADI_LON NADI_CAT NADI_WIND NADI_PRES WELLINGTON_LAT WELLINGTON_LON WELLINGTON_WIND WELLINGTON_PRES DS824_LAT DS824_LON DS824_STAGE DS824_WIND DS824_PRES TD9636_LAT TD9636_LON TD9636_STAGE TD9636_WIND TD9636_PRES TD9635_LAT TD9635_LON TD9635_WIND TD9635_PRES TD9635_ROCI NEUMANN_LAT NEUMANN_LON NEUMANN_CLASS NEUMANN_WIND NEUMANN_PRES MLC_LAT MLC_LON MLC_CLASS MLC_WIND MLC_PRES USA_GUST BOM_GUST BOM_GUST_PER REUNION_GUST REUNION_GUST_PER USA_SEAHGT USA_SEARAD_NE USA_SEARAD_SE USA_SEARAD_SW USA_SEARAD_NW STORM_SPEED STORM_DIR
1884261N17088 1884 35 NI BB NOT_NAMED 1884-09-17 00:00:00 TS 17.4000 88.3000 main 353 347 _________O____ -1 17.4000 88.3000 TC 30 3 267
1884261N17088 1884 35 NI BB NOT_NAMED 1884-09-17 03:00:00 TS 17.3934 88.1617 main 347 336 _________PO___ -1 17.3900 88.0925 TC 30 17.4000 88.3000 1 3 271
1884261N17088 1884 35 NI BB NOT_NAMED 1884-09-17 06:00:00 TS 17.4063 87.9819 main 336 326 _________OP___ -1 17.4000 87.9000 TC 30 17.4158 88.1047 1 3 278
1884261N17088 1884 35 NI BB NOT_NAMED 1884-09-17 09:00:00 TS 17.4394 87.8132 main 326 311 _________PP___ -1 17.4425 87.7350 TC 30 17.4352 87.9175 1 3 284
1884261N17088 1884 35 NI BB NOT_NAMED 1884-09-17 12:00:00 TS 17.4810 87.6733 main 311 302 _________OP___ -1 17.5000 87.6000 TC 30 17.4620 87.7466 1 3 288
1884261N17088 1884 35 NI BB NOT_NAMED 1884-09-17 15:00:00 TS 17.5250 87.5425 main 302 288 _________PO___ -1 17.5500 87.4850 TC 30 17.5000 87.6000 1 2 293
1884261N17088 1884 35 NI BB NOT_NAMED 1884-09-17 18:00:00 TS 17.5754 87.4420 main 288 288 _________OP___ -1 17.6000 87.4000 TC 30 17.5509 87.4841 1 2 303
1884261N17088 1884 35 NI BB NOT_NAMED 1884-09-17 21:00:00 TS 17.6325 87.3663 main 288 274 _________PP___ -1 17.6575 87.3350 TC 30 17.6074 87.3975 1 2 311
1884261N17088 1884 35 NI BB NOT_NAMED 1884-09-18 00:00:00 TS 17.6801 87.3186 main 274 274 _________OP___ -1 17.7000 87.3000 TC 30 17.6603 87.3372 1 1 317
1884261N17088 1884 35 NI BB NOT_NAMED 1884-09-18 03:00:00 TS 17.7038 87.2962 main 274 274 _________PO___ -1 17.7075 87.2925 TC 30 17.7000 87.3000 1 0 313
1884261N17088 1884 35 NI BB NOT_NAMED 1884-09-18 06:00:00 TS 17.7072 87.2892 main 274 274 _________OP___ -1 17.7000 87.3000 TC 30 17.7144 87.2784 1 0 0
1884261N17088 1884 35 NI BB NOT_NAMED 1884-09-18 09:00:00 TS 17.7075 87.2887 main 274 274 _________PP___ -1 17.7000 87.3000 TC 30 17.7150 87.2775 1 0 0
1884261N17088 1884 35 NI BB NOT_NAMED 1884-09-18 12:00:00 TS 17.7041 87.2939 main 274 274 _________OP___ -1 17.7000 87.3000 TC 30 17.7081 87.2878 1 0 0
1884261N17088 1884 35 NI BB NOT_NAMED 1884-09-18 15:00:00 TS 17.7000 87.3000 main 274 274 _________PO___ -1 17.7000 87.3000 TC 30 17.7000 87.3000 1 0 105
1884261N17088 1884 35 NI BB NOT_NAMED 1884-09-18 18:00:00 TS 17.6938 87.3304 main 274 274 _________OP___ -1 17.7000 87.3000 TC 30 17.6876 87.3608 1 1 101
1884261N17088 1884 35 NI BB NOT_NAMED 1884-09-18 21:00:00 TS 17.6847 87.3786 main 277 277 _________PP___ -1 17.6924 87.3450 TC 30 17.6770 87.4123 1 0 0
1884261N17088 1884 35 NI BB NOT_NAMED 1884-09-19 00:00:00 TS 17.6890 87.3538 main 277 270 _________OP___ -1 17.7000 87.3000 TC 30 17.6780 87.4076 1 2 280
1884261N17088 1884 35 NI BB NOT_NAMED 1884-09-19 03:00:00 TS 17.7175 87.1837 main 270 249 _________PO___ -1 17.7350 87.0675 TC 30 17.7000 87.3000 1 5 280
1884261N17088 1884 35 NI BB NOT_NAMED 1884-09-19 06:00:00 TS 17.7749 86.8644 main 249 222 _________OP___ -1 17.8000 86.7000 TC 30 17.7498 87.0289 1 7 281
1884261N17088 1884 35 NI BB NOT_NAMED 1884-09-19 09:00:00 TS 17.8566 86.4563 main 222 178 _________PP___ -1 17.8926 86.2576 TC 30 17.8206 86.6551 1 8 282
1884261N17088 1884 35 NI BB NOT_NAMED 1884-09-19 12:00:00 TS 17.9530 86.0144 main 172 138 _________OP___ -1 18.0000 85.8000 TC 30 17.9061 86.2288 1 8 284
1884261N17088 1884 35 NI BB NOT_NAMED 1884-09-19 15:00:00 TS 18.0499 85.6175 main 138 107 _________PO___ -1 18.0998 85.4349 TC 30 18.0000 85.8000 1 8 285
1884261N17088 1884 35 NI BB NOT_NAMED 1884-09-19 18:00:00 TS 18.1505 85.2532 main 99 61 _________OP___ -1 18.2000 85.1000 TC 30 18.1011 85.4064 1 7 286
1884261N17088 1884 35 NI BB NOT_NAMED 1884-09-19 21:00:00 TS 18.2576 84.8727 main 61 30 _________PP___ -1 18.3076 84.7200 TC 30 18.2077 85.0253 1 7 287
1884261N17088 1884 35 NI BB NOT_NAMED 1884-09-20 00:00:00 TS 18.3552 84.5407 main 23 11 _________OP___ -1 18.4000 84.4000 TC 30 18.3105 84.6814 1 6 288
1884261N17088 1884 35 NI BB NOT_NAMED 1884-09-20 03:00:00 TS 18.4287 84.3062 main 11 0 _________PO___ -1 18.4574 84.2124 TC 30 18.4000 84.4000 1 4 289
1884261N17088 1884 35 NI BB NOT_NAMED 1884-09-20 06:00:00 TS 18.4820 84.1571 main 0 0 _________OP___ -1 18.5000 84.1000 TC 30 18.4640 84.2141 1 3 293
1884261N17088 1884 35 NI BB NOT_NAMED 1884-09-20 09:00:00 TS 18.5322 84.0448 main 0 0 _________PP___ -1 18.5500 84.0000 TC 30 18.5145 84.0897 1 2 296
1884261N17088 1884 35 NI BB NOT_NAMED 1884-09-20 12:00:00 TS 18.5789 83.9477 main 0 0 _________OP___ -1 18.6000 83.9000 TC 30 18.5578 83.9954 1 2 294
1884261N17088 1884 35 NI BB NOT_NAMED 1884-09-20 15:00:00 TS 18.6250 83.8288 main 0 0 _________PO___ -1 18.6500 83.7575 TC 30 18.6000 83.9000 1 3 289
1884261N17088 1884 35 NI BB NOT_NAMED 1884-09-20 18:00:00 TS 18.6668 83.6826 main 0 0 _________OP___ -1 18.7000 83.6000 TC 30 18.6337 83.7652 1 3 286
1884261N17088 1884 35 NI BB NOT_NAMED 1884-09-20 21:00:00 TS 18.7024 83.5398 main 0 0 _________PP___ -1 18.7350 83.4574 TC 30 18.6699 83.6222 1 3 288
1884261N17088 1884 35 NI BB NOT_NAMED 1884-09-21 00:00:00 TS 18.7606 83.3841 main 0 0 _________OP___ -1 18.8000 83.3000 TC 30 18.7212 83.4682 1 4 297
1884261N17088 1884 35 NI BB NOT_NAMED 1884-09-21 03:00:00 TS 18.8675 83.2038 main 0 0 _________PO___ -1 18.9350 83.1075 TC 30 18.8000 83.3000 1 4 306
1884261N17088 1884 35 NI BB NOT_NAMED 1884-09-21 06:00:00 TS 19.0147 83.0093 main 0 0 _________OP___ -1 19.1000 82.9000 TC 30 18.9293 83.1186 1 5 310
1884261N17088 1884 35 NI BB NOT_NAMED 1884-09-21 09:00:00 TS 19.1712 82.8151 main 0 0 _________PP___ -1 19.2575 82.7075 TC 30 19.0850 82.9227 1 5 309
1884261N17088 1884 35 NI BB NOT_NAMED 1884-09-21 12:00:00 TS 19.3240 82.6077 main 0 0 _________OP___ -1 19.4000 82.5000 TC 30 19.2481 82.7154 1 5 304
1884261N17088 1884 35 NI BB NOT_NAMED 1884-09-21 15:00:00 TS 19.4538 82.3750 main 0 0 _________PO___ -1 19.5075 82.2500 TC 30 19.4000 82.5000 1 5 298
1884261N17088 1884 35 NI BB NOT_NAMED 1884-09-21 18:00:00 TS 19.5551 82.1410 main 0 0 _________OP___ -1 19.6000 82.0000 TC 30 19.5103 82.2820 1 5 295
1884261N17088 1884 35 NI BB NOT_NAMED 1884-09-21 21:00:00 TS 19.6537 81.9286 main 0 0 _________PP___ -1 19.6999 81.7999 TC 30 19.6074 82.0572 1 4 296
1884261N17088 1884 35 NI BB NOT_NAMED 1884-09-22 00:00:00 TS 19.7504 81.7144 main 0 0 _________OP___ -1 19.8000 81.6000 TC 30 19.7009 81.8289 1 5 294
1884261N17088 1884 35 NI BB NOT_NAMED 1884-09-22 03:00:00 TS 19.8463 81.4750 main 0 0 _________PO___ -1 19.8925 81.3500 TC 30 19.8000 81.6000 1 5 295
1884261N17088 1884 35 NI BB NOT_NAMED 1884-09-22 06:00:00 TS 19.9589 81.2355 main 0 0 _________OP___ -1 20.0000 81.1000 TC 30 19.9178 81.3709 1 5 300
1884261N17088 1884 35 NI BB NOT_NAMED 1884-09-22 09:00:00 TS 20.0962 81.0175 main 0 0 _________PP___ -1 20.1500 80.8925 TC 30 20.0424 81.1425 1 5 305
1884261N17088 1884 35 NI BB NOT_NAMED 1884-09-22 12:00:00 TS 20.2354 80.8089 main 0 0 _________OP___ -1 20.3000 80.7000 TC 30 20.1709 80.9178 1 5 303
1884261N17088 1884 35 NI BB NOT_NAMED 1884-09-22 15:00:00 TS 20.3500 80.6000 main 0 0 _________PO___ -1 20.4000 80.4999 TC 30 20.3000 80.7000 1 4 299
1884261N17088 1884 35 NI BB NOT_NAMED 1884-09-22 18:00:00 TS 20.4523 80.3942 main 0 0 _________OP___ -1 20.5000 80.3000 TC 30 20.4046 80.4885 1 4 300
1884261N17088 1884 35 NI BB NOT_NAMED 1884-09-22 21:00:00 TS 20.5737 80.1923 main 0 0 _________PP___ -1 20.6350 80.1000 TC 30 20.5124 80.2846 1 5 305
1884261N17088 1884 35 NI BB NOT_NAMED 1884-09-23 00:00:00 TS 20.7195 79.9942 main 0 0 _________OP___ -1 20.8000 79.9000 TC 30 20.6390 80.0884 1 5 310
1884261N17088 1884 35 NI BB NOT_NAMED 1884-09-23 03:00:00 TS 20.8888 79.7962 main 0 0 _________PO___ -1 20.9775 79.6925 TC 30 20.8000 79.9000 1 5 316
1884261N17088 1884 35 NI BB NOT_NAMED 1884-09-23 06:00:00 TS 21.0989 79.6008 main 0 0 _________OP___ -1 21.2000 79.5000 TC 30 20.9978 79.7017 1 6 323
1884261N17088 1884 35 NI BB NOT_NAMED 1884-09-23 09:00:00 TS 21.3550 79.4238 main 0 0 _________PP___ -1 21.4775 79.3350 TC 30 21.2325 79.5127 1 6 331
1884261N17088 1884 35 NI BB NOT_NAMED 1884-09-23 12:00:00 TS 21.6505 79.2711 main 0 0 _________OP___ -1 21.8000 79.2000 TC 30 21.5010 79.3423 1 7 337
1884261N17088 1884 35 NI BB NOT_NAMED 1884-09-23 15:00:00 TS 21.9712 79.1425 main 0 0 _________PO___ -1 22.1425 79.0850 TC 30 21.8000 79.2000 1 7 343
1884261N17088 1884 35 NI BB NOT_NAMED 1884-09-23 18:00:00 TS 22.3289 79.0440 main 0 0 _________OP___ -1 22.5000 79.0000 TC 30 22.1577 79.0881 1 8 348
1884261N17088 1884 35 NI BB NOT_NAMED 1884-09-23 21:00:00 TS 22.7124 78.9737 main 0 0 _________PP___ -1 22.8875 78.9425 TC 30 22.5374 79.0049 1 7 351
1884261N17088 1884 35 NI BB NOT_NAMED 1884-09-24 00:00:00 TS 23.0492 78.9222 main 0 0 _________OP___ -1 23.2000 78.9000 TC 30 22.8984 78.9444 1 6 350
1884261N17088 1884 35 NI BB NOT_NAMED 1884-09-24 03:00:00 TS 23.2650 78.8712 main 0 0 _________PO___ -1 23.3300 78.8425 TC 30 23.2000 78.9000 1 4 345
1884261N17088 1884 35 NI BB NOT_NAMED 1884-09-24 06:00:00 TS 23.3908 78.8282 main 0 0 _________OP___ -1 23.4000 78.8000 TC 30 23.3815 78.8563 1 3 349
1884261N17088 1884 35 NI BB NOT_NAMED 1884-09-24 09:00:00 TS 23.5225 78.8099 main 0 0 _________PP___ -1 23.5425 78.7925 TC 30 23.5025 78.8273 1 3 0
1884261N17088 1884 35 NI BB NOT_NAMED 1884-09-24 12:00:00 TS 23.6486 78.8048 main 0 0 _________OP___ -1 23.7000 78.8000 TC 30 23.5972 78.8096 1 3 354
1884261N17088 1884 35 NI BB NOT_NAMED 1884-09-24 15:00:00 TS 23.7712 78.8000 main 0 0 _________PO___ -1 23.8425 78.8000 TC 30 23.7000 78.8000 1 3 359
1884261N17088 1884 35 NI BB NOT_NAMED 1884-09-24 18:00:00 TS 23.9283 78.7964 main 0 0 _________OP___ -1 24.0000 78.8000 TC 30 23.8566 78.7928 1 3 0
1884261N17088 1884 35 NI BB NOT_NAMED 1884-09-24 21:00:00 TS 24.1100 78.7962 main 0 0 _________PP___ -1 24.1925 78.8000 TC 30 24.0275 78.7925 1 4 4
1884261N17088 1884 35 NI BB NOT_NAMED 1884-09-25 00:00:00 TS 24.3048 78.7980 main 0 0 _________OP___ -1 24.4000 78.8000 TC 30 24.2097 78.7959 1 4 0
1884261N17088 1884 35 NI BB NOT_NAMED 1884-09-25 03:00:00 TS 24.5000 78.8000 main 0 0 _________PO___ -1 24.6000 78.8000 TC 30 24.4000 78.8000 1 4 1
1884261N17088 1884 35 NI BB NOT_NAMED 1884-09-25 06:00:00 TS 24.7005 78.7980 main 0 0 _________OP___ -1 24.8000 78.8000 TC 30 24.6009 78.7960 1 4 0
1884261N17088 1884 35 NI BB NOT_NAMED 1884-09-25 09:00:00 TS 24.9075 78.7963 main 0 0 _________PP___ -1 25.0075 78.8000 TC 30 24.8075 78.7926 1 4 357
1884261N17088 1884 35 NI BB NOT_NAMED 1884-09-25 12:00:00 TS 25.1052 78.7964 main 0 0 _________OP___ -1 25.2000 78.8000 TC 30 25.0103 78.7929 1 4 0
1884261N17088 1884 35 NI BB NOT_NAMED 1884-09-25 15:00:00 TS 25.2787 78.7963 main 0 0 _________PO___ -1 25.3575 78.7925 TC 30 25.2000 78.8000 1 3 0
1884261N17088 1884 35 NI BB NOT_NAMED 1884-09-25 18:00:00 TS 25.4322 78.7988 main 0 0 _________OP___ -1 25.5000 78.8000 TC 30 25.3643 78.7977 1 3 0
1884261N17088 1884 35 NI BB NOT_NAMED 1884-09-25 21:00:00 TS 25.5787 78.8201 main 0 0 _________PP___ -1 25.6425 78.8350 TC 30 25.5149 78.8053 1 3 10
1884261N17088 1884 35 NI BB NOT_NAMED 1884-09-26 00:00:00 TS 25.7290 78.8676 main 0 0 _________OP___ -1 25.8000 78.9000 TC 30 25.6580 78.8352 1 3 17
1884261N17088 1884 35 NI BB NOT_NAMED 1884-09-26 03:00:00 TS 25.9037 78.9388 main 0 0 _________PO___ -1 26.0075 78.9775 TC 30 25.8000 78.9000 1 4 25
1884261N17088 1884 35 NI BB NOT_NAMED 1884-09-26 06:00:00 TS 26.0933 79.0548 main 0 0 _________OP___ -1 26.2000 79.1000 TC 30 25.9866 79.0096 1 4 36
1884261N17088 1884 35 NI BB NOT_NAMED 1884-09-26 09:00:00 TS 26.2488 79.2196 main 0 0 _________PP___ -1 26.3300 79.2850 TC 30 26.1675 79.1543 1 4 50
1884261N17088 1884 35 NI BB NOT_NAMED 1884-09-26 12:00:00 TS 26.3574 79.4110 main 0 0 _________OP___ -1 26.4000 79.5000 TC 30 26.3147 79.3220 1 4 64
1884261N17088 1884 35 NI BB NOT_NAMED 1884-09-26 15:00:00 TS 26.4187 79.6037 main 0 0 _________PO___ -1 26.4375 79.7075 TC 30 26.4000 79.5000 1 3 83
1884261N17088 1884 35 NI BB NOT_NAMED 1884-09-26 18:00:00 TS 26.4010 79.7963 main 0 0 _________OP___ -1 26.4000 79.9000 TC 30 26.4020 79.6926 1 4 108
1884261N17088 1884 35 NI BB NOT_NAMED 1884-09-26 21:00:00 TS 26.3063 79.9803 main 0 0 _________PP___ -1 26.2725 80.0726 TC 30 26.3402 79.8881 1 4 128
1884261N17088 1884 35 NI BB NOT_NAMED 1884-09-27 00:00:00 TS 26.1666 80.1322 main 0 0 _________OP___ -1 26.1000 80.2000 TC 30 26.2333 80.0645 1 4 140
1884261N17088 1884 35 NI BB NOT_NAMED 1884-09-27 03:00:00 TS 26.0250 80.2362 main 0 0 _________PO___ -1 25.9500 80.2725 TC 30 26.1000 80.2000 1 3 152
1884261N17088 1884 35 NI BB NOT_NAMED 1884-09-27 06:00:00 TS 25.8816 80.2942 main 0 0 _________OP___ -1 25.8000 80.3000 TC 30 25.9633 80.2884 1 3 164
1884261N17088 1884 35 NI BB NOT_NAMED 1884-09-27 09:00:00 TS 25.7249 80.3275 main 0 0 _________PP___ -1 25.6425 80.3225 TC 30 25.8073 80.3325 1 3 175
1884261N17088 1884 35 NI BB NOT_NAMED 1884-09-27 12:00:00 TS 25.5738 80.3177 main 0 0 _________OP___ -1 25.5000 80.3000 TC 30 25.6477 80.3353 1 3 195
1884261N17088 1884 35 NI BB NOT_NAMED 1884-09-27 15:00:00 TS 25.4463 80.2575 main 0 0 _________PO___ -1 25.3925 80.2150 TC 30 25.5000 80.3000 1 3 211
1884261N17088 1884 35 NI BB NOT_NAMED 1884-09-27 18:00:00 TS 25.3408 80.1659 main 0 0 _________OP___ -1 25.3000 80.1000 TC 30 25.3816 80.2317 1 3 220
1884261N17088 1884 35 NI BB NOT_NAMED 1884-09-27 21:00:00 TS 25.2388 80.0612 main 0 0 _________PP___ -1 25.2000 79.9925 TC 30 25.2776 80.1298 1 3 224
1884261N17088 1884 35 NI BB NOT_NAMED 1884-09-28 00:00:00 TS 25.1424 79.9565 main 0 0 _________OP___ -1 25.1000 79.9000 TC 30 25.1848 80.0130 1 3 221
1884261N17088 1884 35 NI BB NOT_NAMED 1884-09-28 03:00:00 TS 25.0462 79.8750 main 0 0 _________PO___ -1 24.9925 79.8500 TC 30 25.1000 79.9000 1 2 214
1884261N17088 1884 35 NI BB NOT_NAMED 1884-09-28 06:00:00 TS 24.9548 79.8110 main 0 0 _________OP___ -1 24.9000 79.8000 TC 30 25.0096 79.8219 1 2 220
1884261N17088 1884 35 NI BB NOT_NAMED 1884-09-28 09:00:00 TS 24.8850 79.7288 main 0 0 _________PP___ -1 24.8425 79.7075 TC 30 24.9274 79.7501 1 2 231
1884261N17088 1884 35 NI BB NOT_NAMED 1884-09-28 12:00:00 TS 24.8283 79.6391 main 0 0 _________OP___ -1 24.8000 79.6000 TC 30 24.8565 79.6782 1 2 235
1884261N17088 1884 35 NI BB NOT_NAMED 1884-09-28 15:00:00 TS 24.7712 79.5500 main 0 0 _________PO___ -1 24.7425 79.5000 TC 30 24.8000 79.6000 1 2 234
1884261N17088 1884 35 NI BB NOT_NAMED 1884-09-28 18:00:00 TS 24.7120 79.4656 main 0 0 _________OP___ -1 24.7000 79.4000 TC 30 24.7239 79.5312 1 2 235
1884261N17088 1884 35 NI BB NOT_NAMED 1884-09-28 21:00:00 TS 24.6723 79.3909 main 0 0 _________PP___ -1 24.6774 79.3299 TC 30 24.6672 79.4519 1 2 259
1884261N17088 1884 35 NI BB NOT_NAMED 1884-09-29 00:00:00 TS 24.6760 79.2733 main 0 0 _________OP___ -1 24.7000 79.2000 TC 30 24.6520 79.3467 1 3 280
1884261N17088 1884 35 NI BB NOT_NAMED 1884-09-29 03:00:00 TS 24.7276 79.0575 main 0 0 _________PO___ -1 24.7552 78.9149 TC 30 24.7000 79.2000 1 5 292
1884261N17088 1884 35 NI BB NOT_NAMED 1884-09-29 06:00:00 TS 24.8577 78.7846 main 0 0 _________OP___ -1 24.9000 78.6000 TC 30 24.8154 78.9693 1 6 307
1884261N17088 1884 35 NI BB NOT_NAMED 1884-09-29 09:00:00 TS 25.0828 78.5391 main 0 0 _________PP___ -1 25.1699 78.3775 TC 30 24.9956 78.7007 1 7 320
1884261N17088 1884 35 NI BB NOT_NAMED 1884-09-29 12:00:00 TS 25.3640 78.3159 main 0 0 _________OP___ -1 25.5000 78.2000 TC 30 25.2279 78.4318 1 7 326
1884261N17088 1884 35 NI BB NOT_NAMED 1884-09-29 15:00:00 TS 25.6462 78.1137 main 0 0 _________PO___ -1 25.7925 78.0275 TC 30 25.5000 78.2000 1 7 332
1884261N17088 1884 35 NI AS NOT_NAMED 1884-09-29 18:00:00 TS 25.9546 77.9723 main 0 0 _________OP___ -1 26.1000 77.9000 TC 30 25.8092 78.0446 1 7 342
1884261N17088 1884 35 NI AS NOT_NAMED 1884-09-29 21:00:00 TS 26.3074 77.8799 main 0 0 _________PP___ -1 26.4650 77.8274 TC 30 26.1498 77.9324 1 7 349
1884261N17088 1884 35 NI AS NOT_NAMED 1884-09-30 00:00:00 TS 26.6452 77.8270 main 0 0 _________OP___ -1 26.8000 77.8000 TC 30 26.4905 77.8540 1 6 353
1884261N17088 1884 35 NI AS NOT_NAMED 1884-09-30 03:00:00 TS 26.9112 77.8000 main 0 0 _________PO___ -1 27.0225 77.7999 TC 30 26.8000 77.8000 1 5 355
1884261N17088 1884 35 NI AS NOT_NAMED 1884-09-30 06:00:00 TS 27.1200 77.7766 main 0 0 _________OP___ -1 27.2000 77.8000 TC 30 27.0399 77.7531 1 4 352
1884261N17088 1884 35 NI AS NOT_NAMED 1884-09-30 09:00:00 TS 27.3225 77.7386 main 0 0 _________PP___ -1 27.4000 77.7501 TC 30 27.2449 77.7271 1 4 352
1884261N17088 1884 35 NI AS NOT_NAMED 1884-09-30 12:00:00 TS 27.5137 77.7063 main 0 0 _________OP___ -1 27.6000 77.7000 TC 30 27.4275 77.7126 1 4 354
1884261N17088 1884 35 NI AS NOT_NAMED 1884-09-30 15:00:00 TS 27.7037 77.7000 main 0 0 _________PO___ -1 27.8075 77.6999 TC 30 27.6000 77.7000 1 4 0
1884261N17088 1884 35 NI AS NOT_NAMED 1884-09-30 18:00:00 TS 27.8702 77.6896 main 0 0 _________OP___ -1 28.0000 77.7000 TC 30 27.7728 77.6817 1 3 353
1884261N17088 1884 35 NI AS NOT_NAMED 1884-09-30 21:00:00 TS 28.0325 77.6597 main 0 0 _________PP___ -1 28.1600 77.6626 TC 30 27.9475 77.6577 1 3 350
1884261N17088 1884 35 NI AS NOT_NAMED 1884-10-01 00:00:00 TS 28.1823 77.6199 main 0 0 _________OP___ -1 28.3000 77.6000 TC 30 28.1235 77.6299 1 3 347
1884261N17088 1884 35 NI AS NOT_NAMED 1884-10-01 03:00:00 NR 28.3000 77.6000 main 0 __________O___ -1 TC 28.3000 77.6000 1 2 353

About IBTrACS Database

This database is a web-friendly format of International Best Track Archive for Climate Stewardship (IBTrACS), a global best track data archive curated by NOAA dating back to 1842.

Updated: 2021-11-26